sensor_id;sensor_type;location;lat;lon;timestamp;pressure;altitude;pressure_sealevel;temperature;humidity
70521;BME280;58442;52.716;23.560;2022-07-29T00:01:29;101969.35;;;13.79;69.51
70521;BME280;58442;52.716;23.560;2022-07-29T00:03:30;101968.10;;;13.77;69.57
70521;BME280;58442;52.716;23.560;2022-07-29T00:05:32;101976.75;;;13.79;69.38
70521;BME280;58442;52.716;23.560;2022-07-29T00:07:33;101980.63;;;13.78;69.32
70521;BME280;58442;52.716;23.560;2022-07-29T00:09:44;101976.30;;;13.77;69.26
70521;BME280;58442;52.716;23.560;2022-07-29T00:11:45;101972.77;;;13.76;69.25
70521;BME280;58442;52.716;23.560;2022-07-29T00:13:46;101972.32;;;13.74;69.19
70521;BME280;58442;52.716;23.560;2022-07-29T00:15:47;101979.72;;;13.74;69.06
70521;BME280;58442;52.716;23.560;2022-07-29T00:17:59;101978.13;;;13.73;69.07
70521;BME280;58442;52.716;23.560;2022-07-29T00:20:00;101985.85;;;13.71;69.08
70521;BME280;58442;52.716;23.560;2022-07-29T00:22:01;101982.66;;;13.68;69.07
70521;BME280;58442;52.716;23.560;2022-07-29T00:24:03;101982.21;;;13.66;69.07
70521;BME280;58442;52.716;23.560;2022-07-29T00:26:14;101984.01;;;13.62;69.08
70521;BME280;58442;52.716;23.560;2022-07-29T00:28:15;101985.15;;;13.61;69.10
70521;BME280;58442;52.716;23.560;2022-07-29T00:30:16;101976.49;;;13.59;69.10
70521;BME280;58442;52.716;23.560;2022-07-29T00:32:17;101976.35;;;13.56;69.10
70521;BME280;58442;52.716;23.560;2022-07-29T00:34:29;101978.98;;;13.52;69.20
70521;BME280;58442;52.716;23.560;2022-07-29T00:36:50;101985.90;;;13.50;69.25
70521;BME280;58442;52.716;23.560;2022-07-29T00:38:51;101983.85;;;13.47;69.36
70521;BME280;58442;52.716;23.560;2022-07-29T00:40:53;101987.23;;;13.44;69.40
70521;BME280;58442;52.716;23.560;2022-07-29T00:42:54;101991.11;;;13.43;69.37
70521;BME280;58442;52.716;23.560;2022-07-29T00:45:05;101988.27;;;13.39;69.35
70521;BME280;58442;52.716;23.560;2022-07-29T00:47:07;101980.73;;;13.36;69.32
70521;BME280;58442;52.716;23.560;2022-07-29T00:49:09;101984.14;;;13.33;69.36
70521;BME280;58442;52.716;23.560;2022-07-29T00:51:10;101978.20;;;13.31;69.33
70521;BME280;58442;52.716;23.560;2022-07-29T00:53:20;101980.82;;;13.27;69.39
70521;BME280;58442;52.716;23.560;2022-07-29T00:55:22;101982.30;;;13.25;69.40
70521;BME280;58442;52.716;23.560;2022-07-29T00:57:23;101983.40;;;13.24;69.38
70521;BME280;58442;52.716;23.560;2022-07-29T00:59:26;101980.21;;;13.22;69.38
70521;BME280;58442;52.716;23.560;2022-07-29T01:01:34;101975.41;;;13.19;69.43
70521;BME280;58442;52.716;23.560;2022-07-29T01:03:36;101970.60;;;13.15;69.48
70521;BME280;58442;52.716;23.560;2022-07-29T01:05:37;101965.82;;;13.12;69.50
70521;BME280;58442;52.716;23.560;2022-07-29T01:07:41;101964.54;;;13.10;69.53
70521;BME280;58442;52.716;23.560;2022-07-29T01:09:50;101964.42;;;13.06;69.60
70521;BME280;58442;52.716;23.560;2022-07-29T01:11:52;101966.70;;;13.04;69.63
70521;BME280;58442;52.716;23.560;2022-07-29T01:13:54;101962.34;;;13.03;69.59
70521;BME280;58442;52.716;23.560;2022-07-29T01:16:05;101959.16;;;13.01;69.55
70521;BME280;58442;52.716;23.560;2022-07-29T01:18:16;101959.05;;;12.98;69.57
70521;BME280;58442;52.716;23.560;2022-07-29T01:23:01;101958.90;;;12.94;69.54
70521;BME280;58442;52.716;23.560;2022-07-29T01:25:20;101951.39;;;12.91;69.55
70521;BME280;58442;52.716;23.560;2022-07-29T01:29:58;101958.97;;;12.85;69.66
70521;BME280;58442;52.716;23.560;2022-07-29T01:32:08;101951.77;;;12.81;69.74
70521;BME280;58442;52.716;23.560;2022-07-29T01:34:17;101952.45;;;12.78;69.83
70521;BME280;58442;52.716;23.560;2022-07-29T01:36:29;101954.23;;;12.74;69.94
70521;BME280;58442;52.716;23.560;2022-07-29T01:38:32;101950.25;;;12.71;70.08
70521;BME280;58442;52.716;23.560;2022-07-29T01:40:45;101955.22;;;12.69;70.15
70521;BME280;58442;52.716;23.560;2022-07-29T01:43:00;101948.51;;;12.67;70.16
70521;BME280;58442;52.716;23.560;2022-07-29T01:47:20;101949.64;;;12.66;70.25
70521;BME280;58442;52.716;23.560;2022-07-29T01:49:27;101956.23;;;12.65;70.27
70521;BME280;58442;52.716;23.560;2022-07-29T01:51:40;101944.84;;;12.63;70.31
70521;BME280;58442;52.716;23.560;2022-07-29T01:53:47;101949.03;;;12.60;70.37
70521;BME280;58442;52.716;23.560;2022-07-29T01:55:52;101953.69;;;12.59;70.45
70521;BME280;58442;52.716;23.560;2022-07-29T01:57:57;101954.03;;;12.58;70.44
70521;BME280;58442;52.716;23.560;2022-07-29T02:00:01;101954.82;;;12.58;70.46
70521;BME280;58442;52.716;23.560;2022-07-29T02:02:04;101956.75;;;12.58;70.44
70521;BME280;58442;52.716;23.560;2022-07-29T02:04:11;101957.55;;;12.58;70.42
70521;BME280;58442;52.716;23.560;2022-07-29T02:06:18;101961.41;;;12.57;70.41
70521;BME280;58442;52.716;23.560;2022-07-29T02:08:21;101966.06;;;12.57;70.37
70521;BME280;58442;52.716;23.560;2022-07-29T02:10:26;101973.45;;;12.56;70.34
70521;BME280;58442;52.716;23.560;2022-07-29T02:12:39;101960.13;;;12.55;70.29
70521;BME280;58442;52.716;23.560;2022-07-29T02:14:45;101967.51;;;12.54;70.26
70521;BME280;58442;52.716;23.560;2022-07-29T02:16:50;101967.51;;;12.54;70.21
70521;BME280;58442;52.716;23.560;2022-07-29T02:18:55;101966.72;;;12.54;70.08
70521;BME280;58442;52.716;23.560;2022-07-29T02:20:58;101969.44;;;12.54;70.14
70521;BME280;58442;52.716;23.560;2022-07-29T02:23:00;101967.05;;;12.52;70.17
70521;BME280;58442;52.716;23.560;2022-07-29T02:25:04;101976.36;;;12.51;70.23
70521;BME280;58442;52.716;23.560;2022-07-29T02:27:08;101976.36;;;12.51;70.22
70521;BME280;58442;52.716;23.560;2022-07-29T02:29:12;101982.95;;;12.50;70.18
70521;BME280;58442;52.716;23.560;2022-07-29T02:31:18;101981.35;;;12.49;70.16
70521;BME280;58442;52.716;23.560;2022-07-29T02:33:22;101986.81;;;12.49;70.09
70521;BME280;58442;52.716;23.560;2022-07-29T02:35:25;101984.39;;;12.48;70.04
70521;BME280;58442;52.716;23.560;2022-07-29T02:37:27;101975.75;;;12.46;69.99
70521;BME280;58442;52.716;23.560;2022-07-29T02:39:30;101985.06;;;12.45;69.99
70521;BME280;58442;52.716;23.560;2022-07-29T02:41:40;101987.33;;;12.43;69.96
70521;BME280;58442;52.716;23.560;2022-07-29T02:43:43;101988.77;;;12.40;69.94
70521;BME280;58442;52.716;23.560;2022-07-29T02:45:47;101987.50;;;12.38;69.94
70521;BME280;58442;52.716;23.560;2022-07-29T02:48:06;101980.77;;;12.35;69.94
70521;BME280;58442;52.716;23.560;2022-07-29T02:50:14;101978.70;;;12.32;69.96
70521;BME280;58442;52.716;23.560;2022-07-29T02:56:44;101972.02;;;12.21;70.27
70521;BME280;58442;52.716;23.560;2022-07-29T02:58:52;101974.61;;;12.17;70.40
70521;BME280;58442;52.716;23.560;2022-07-29T03:01:11;101967.90;;;12.15;70.52
70521;BME280;58442;52.716;23.560;2022-07-29T03:03:15;101975.91;;;12.11;70.71
70521;BME280;58442;52.716;23.560;2022-07-29T03:05:20;101978.98;;;12.10;70.82
70521;BME280;58442;52.716;23.560;2022-07-29T03:07:22;101973.53;;;12.10;70.97
70521;BME280;58442;52.716;23.560;2022-07-29T03:09:24;101976.25;;;12.10;70.96
70521;BME280;58442;52.716;23.560;2022-07-29T03:11:26;101981.38;;;12.11;70.99
70521;BME280;58442;52.716;23.560;2022-07-29T03:13:29;101990.34;;;12.12;70.94
70521;BME280;58442;52.716;23.560;2022-07-29T03:15:31;101991.93;;;12.13;70.90
70521;BME280;58442;52.716;23.560;2022-07-29T03:17:36;101989.21;;;12.13;70.88
70521;BME280;58442;52.716;23.560;2022-07-29T03:19:39;101989.21;;;12.13;70.92
70521;BME280;58442;52.716;23.560;2022-07-29T03:21:43;101989.21;;;12.13;70.87
70521;BME280;58442;52.716;23.560;2022-07-29T03:23:49;101989.21;;;12.13;70.85
70521;BME280;58442;52.716;23.560;2022-07-29T03:25:51;101991.59;;;12.14;70.83
70521;BME280;58442;52.716;23.560;2022-07-29T03:27:53;101989.71;;;12.15;70.83
70521;BME280;58442;52.716;23.560;2022-07-29T03:29:54;101990.16;;;12.17;70.80
70521;BME280;58442;52.716;23.560;2022-07-29T03:31:55;101991.42;;;12.19;70.77
70521;BME280;58442;52.716;23.560;2022-07-29T03:34:05;101993.82;;;12.21;70.78
70521;BME280;58442;52.716;23.560;2022-07-29T03:36:07;101990.79;;;12.22;70.84
70521;BME280;58442;52.716;23.560;2022-07-29T03:38:08;101995.91;;;12.24;70.88
70521;BME280;58442;52.716;23.560;2022-07-29T03:40:12;101992.85;;;12.25;70.91
70521;BME280;58442;52.716;23.560;2022-07-29T03:42:24;102003.11;;;12.28;70.96
70521;BME280;58442;52.716;23.560;2022-07-29T03:44:27;102001.65;;;12.31;71.06
70521;BME280;58442;52.716;23.560;2022-07-29T03:46:30;102000.98;;;12.34;71.14
70521;BME280;58442;52.716;23.560;2022-07-29T03:48:34;101994.88;;;12.37;71.18
70521;BME280;58442;52.716;23.560;2022-07-29T03:50:37;102001.27;;;12.41;71.22
70521;BME280;58442;52.716;23.560;2022-07-29T03:52:38;101996.77;;;12.45;71.39
70521;BME280;58442;52.716;23.560;2022-07-29T03:54:40;101993.37;;;12.48;71.48
70521;BME280;58442;52.716;23.560;2022-07-29T03:56:43;101997.05;;;12.52;71.55
70521;BME280;58442;52.716;23.560;2022-07-29T03:58:51;101992.54;;;12.56;71.69
70521;BME280;58442;52.716;23.560;2022-07-29T04:01:00;102000.52;;;12.62;71.86
70521;BME280;58442;52.716;23.560;2022-07-29T04:03:03;101994.87;;;12.67;71.96
70521;BME280;58442;52.716;23.560;2022-07-29T04:05:05;102000.95;;;12.72;72.07
70521;BME280;58442;52.716;23.560;2022-07-29T04:07:12;101994.96;;;12.79;72.08
70521;BME280;58442;52.716;23.560;2022-07-29T04:09:14;101992.84;;;12.84;72.21
70521;BME280;58442;52.716;23.560;2022-07-29T04:11:15;101996.64;;;12.92;72.28
70521;BME280;58442;52.716;23.560;2022-07-29T04:13:16;101996.91;;;12.99;72.32
70521;BME280;58442;52.716;23.560;2022-07-29T04:15:20;101997.17;;;13.06;72.32
70521;BME280;58442;52.716;23.560;2022-07-29T04:17:21;102000.17;;;13.13;72.42
70521;BME280;58442;52.716;23.560;2022-07-29T04:19:22;101997.73;;;13.21;72.37
70521;BME280;58442;52.716;23.560;2022-07-29T04:21:24;101998.33;;;13.26;72.50
70521;BME280;58442;52.716;23.560;2022-07-29T04:23:35;101995.52;;;13.35;72.53
70521;BME280;58442;52.716;23.560;2022-07-29T04:25:40;102000.44;;;13.41;72.57
70521;BME280;58442;52.716;23.560;2022-07-29T04:27:41;101992.51;;;13.49;72.56
70521;BME280;58442;52.716;23.560;2022-07-29T04:29:53;101990.02;;;13.56;72.59
70521;BME280;58442;52.716;23.560;2022-07-29T04:31:54;101993.34;;;13.61;72.59
70521;BME280;58442;52.716;23.560;2022-07-29T04:33:55;101991.99;;;13.67;72.69
70521;BME280;58442;52.716;23.560;2022-07-29T04:35:56;101989.51;;;13.75;72.75
70521;BME280;58442;52.716;23.560;2022-07-29T04:37:57;101992.48;;;13.82;72.77
70521;BME280;58442;52.716;23.560;2022-07-29T04:40:06;101987.27;;;13.89;72.77
70521;BME280;58442;52.716;23.560;2022-07-29T04:42:07;101992.17;;;13.95;72.84
70521;BME280;58442;52.716;23.560;2022-07-29T04:44:08;101993.55;;;14.02;72.85
70521;BME280;58442;52.716;23.560;2022-07-29T04:46:09;101985.93;;;14.07;72.85
70521;BME280;58442;52.716;23.560;2022-07-29T04:48:20;101978.63;;;14.11;72.94
70521;BME280;58442;52.716;23.560;2022-07-29T04:50:21;101986.96;;;14.15;73.10
70521;BME280;58442;52.716;23.560;2022-07-29T04:52:23;101984.23;;;14.15;73.27
70521;BME280;58442;52.716;23.560;2022-07-29T04:54:24;101983.19;;;14.19;73.33
70521;BME280;58442;52.716;23.560;2022-07-29T04:56:34;101986.05;;;14.23;73.42
70521;BME280;58442;52.716;23.560;2022-07-29T04:58:37;101980.23;;;14.24;73.56
70521;BME280;58442;52.716;23.560;2022-07-29T05:00:39;101985.03;;;14.28;73.60
70521;BME280;58442;52.716;23.560;2022-07-29T05:02:40;101980.02;;;14.30;73.64
70521;BME280;58442;52.716;23.560;2022-07-29T05:04:49;101974.64;;;14.33;73.70
70521;BME280;58442;52.716;23.560;2022-07-29T05:06:50;101984.56;;;14.38;73.82
70521;BME280;58442;52.716;23.560;2022-07-29T05:08:51;101981.96;;;14.41;73.87
70521;BME280;58442;52.716;23.560;2022-07-29T05:10:53;101987.07;;;14.43;73.90
70521;BME280;58442;52.716;23.560;2022-07-29T05:13:07;101982.05;;;14.45;73.99
70521;BME280;58442;52.716;23.560;2022-07-29T05:15:09;101977.05;;;14.47;74.12
70521;BME280;58442;52.716;23.560;2022-07-29T05:17:10;101986.18;;;14.51;74.18
70521;BME280;58442;52.716;23.560;2022-07-29T05:19:11;101981.64;;;14.55;74.15
70521;BME280;58442;52.716;23.560;2022-07-29T05:21:19;101981.85;;;14.62;74.15
70521;BME280;58442;52.716;23.560;2022-07-29T05:23:20;101980.45;;;14.68;74.21
70521;BME280;58442;52.716;23.560;2022-07-29T05:25:21;101986.17;;;14.75;74.20
70521;BME280;58442;52.716;23.560;2022-07-29T05:27:22;101979.29;;;14.82;74.22
70521;BME280;58442;52.716;23.560;2022-07-29T05:29:33;101981.43;;;14.88;74.22
70521;BME280;58442;52.716;23.560;2022-07-29T05:31:35;101974.59;;;14.94;74.22
70521;BME280;58442;52.716;23.560;2022-07-29T05:33:36;101981.77;;;14.99;74.23
70521;BME280;58442;52.716;23.560;2022-07-29T05:35:37;101978.33;;;15.02;74.23
70521;BME280;58442;52.716;23.560;2022-07-29T05:37:48;101983.22;;;15.09;74.30
70521;BME280;58442;52.716;23.560;2022-07-29T05:39:49;101988.09;;;15.15;74.35
70521;BME280;58442;52.716;23.560;2022-07-29T05:41:51;101992.90;;;15.18;74.32
70521;BME280;58442;52.716;23.560;2022-07-29T05:43:52;101992.98;;;15.22;74.33
70521;BME280;58442;52.716;23.560;2022-07-29T05:46:03;101993.09;;;15.25;74.43
70521;BME280;58442;52.716;23.560;2022-07-29T05:48:04;101997.98;;;15.32;74.49
70521;BME280;58442;52.716;23.560;2022-07-29T05:50:06;101989.16;;;15.39;74.43
70521;BME280;58442;52.716;23.560;2022-07-29T05:52:08;101994.05;;;15.45;74.35
70521;BME280;58442;52.716;23.560;2022-07-29T05:54:18;101988.41;;;15.54;74.27
70521;BME280;58442;52.716;23.560;2022-07-29T05:56:19;102001.17;;;15.62;74.23
70521;BME280;58442;52.716;23.560;2022-07-29T05:58:20;101998.98;;;15.68;74.17
70521;BME280;58442;52.716;23.560;2022-07-29T06:00:21;101996.78;;;15.73;74.13
70521;BME280;58442;52.716;23.560;2022-07-29T06:02:33;102000.40;;;15.77;74.13
70521;BME280;58442;52.716;23.560;2022-07-29T06:04:34;102000.07;;;15.79;74.24
70521;BME280;58442;52.716;23.560;2022-07-29T06:06:35;101997.76;;;15.81;74.31
70521;BME280;58442;52.716;23.560;2022-07-29T06:08:36;101998.63;;;15.85;74.31
70521;BME280;58442;52.716;23.560;2022-07-29T06:10:47;101996.90;;;15.93;74.34
70521;BME280;58442;52.716;23.560;2022-07-29T06:12:48;101998.66;;;16.01;74.39
70521;BME280;58442;52.716;23.560;2022-07-29T06:14:50;101996.53;;;16.10;74.29
70521;BME280;58442;52.716;23.560;2022-07-29T06:16:51;102004.14;;;16.17;74.18
70521;BME280;58442;52.716;23.560;2022-07-29T06:19:03;101998.84;;;16.24;74.15
70521;BME280;58442;52.716;23.560;2022-07-29T06:21:09;102005.74;;;16.33;74.10
70521;BME280;58442;52.716;23.560;2022-07-29T06:23:10;101996.17;;;16.43;73.99
70521;BME280;58442;52.716;23.560;2022-07-29T06:25:11;102002.62;;;16.51;73.89
70521;BME280;58442;52.716;23.560;2022-07-29T06:27:17;101994.97;;;16.60;73.78
70521;BME280;58442;52.716;23.560;2022-07-29T06:29:18;101998.67;;;16.67;73.75
70521;BME280;58442;52.716;23.560;2022-07-29T06:31:19;102001.63;;;16.75;73.69
70521;BME280;58442;52.716;23.560;2022-07-29T06:33:20;101996.00;;;16.87;73.53
70521;BME280;58442;52.716;23.560;2022-07-29T06:35:35;101999.05;;;17.01;73.30
70521;BME280;58442;52.716;23.560;2022-07-29T06:37:37;101995.74;;;17.11;73.04
70521;BME280;58442;52.716;23.560;2022-07-29T06:39:38;102001.02;;;17.20;72.94
70521;BME280;58442;52.716;23.560;2022-07-29T06:41:39;101993.06;;;17.34;72.79
70521;BME280;58442;52.716;23.560;2022-07-29T06:43:46;102000.73;;;17.44;72.66
70521;BME280;58442;52.716;23.560;2022-07-29T06:45:47;101994.20;;;17.53;72.58
70521;BME280;58442;52.716;23.560;2022-07-29T06:47:48;102006.92;;;17.61;72.43
70521;BME280;58442;52.716;23.560;2022-07-29T06:49:50;101997.38;;;17.74;72.22
70521;BME280;58442;52.716;23.560;2022-07-29T06:52:01;101989.80;;;17.90;71.79
70521;BME280;58442;52.716;23.560;2022-07-29T06:54:02;101999.45;;;18.03;71.45
70521;BME280;58442;52.716;23.560;2022-07-29T06:56:06;101996.52;;;18.16;71.12
70521;BME280;58442;52.716;23.560;2022-07-29T06:58:14;101997.62;;;18.34;70.78
70521;BME280;58442;52.716;23.560;2022-07-29T07:00:18;101992.36;;;18.52;70.36
70521;BME280;58442;52.716;23.560;2022-07-29T07:02:19;101994.62;;;18.69;69.85
70521;BME280;58442;52.716;23.560;2022-07-29T07:04:20;101994.02;;;18.83;69.48
70521;BME280;58442;52.716;23.560;2022-07-29T07:06:22;101989.81;;;18.93;69.08
70521;BME280;58442;52.716;23.560;2022-07-29T07:08:30;101988.79;;;19.04;68.66
70521;BME280;58442;52.716;23.560;2022-07-29T07:10:32;101993.27;;;19.16;68.25
70521;BME280;58442;52.716;23.560;2022-07-29T07:12:34;101992.65;;;19.30;67.83
70521;BME280;58442;52.716;23.560;2022-07-29T07:14:35;102000.28;;;19.44;67.47
70521;BME280;58442;52.716;23.560;2022-07-29T07:16:45;101987.03;;;19.56;67.09
70521;BME280;58442;52.716;23.560;2022-07-29T07:18:47;101986.02;;;19.72;66.66
70521;BME280;58442;52.716;23.560;2022-07-29T07:20:48;101991.23;;;19.80;66.34
70521;BME280;58442;52.716;23.560;2022-07-29T07:22:49;101985.38;;;19.89;66.12
70521;BME280;58442;52.716;23.560;2022-07-29T07:25:00;101984.72;;;20.03;65.82
70521;BME280;58442;52.716;23.560;2022-07-29T07:27:01;101981.27;;;20.16;65.47
70521;BME280;58442;52.716;23.560;2022-07-29T07:29:02;101983.74;;;20.29;65.05
70521;BME280;58442;52.716;23.560;2022-07-29T07:31:03;101983.40;;;20.37;64.83
70521;BME280;58442;52.716;23.560;2022-07-29T07:33:14;101977.96;;;20.44;64.40
70521;BME280;58442;52.716;23.560;2022-07-29T07:35:16;101976.34;;;20.43;64.33
70521;BME280;58442;52.716;23.560;2022-07-29T07:37:17;101971.61;;;20.44;64.33
70521;BME280;58442;52.716;23.560;2022-07-29T07:39:21;101976.34;;;20.43;64.27
70521;BME280;58442;52.716;23.560;2022-07-29T07:41:29;101974.83;;;20.46;64.13
70521;BME280;58442;52.716;23.560;2022-07-29T07:43:31;101974.05;;;20.49;63.80
70521;BME280;58442;52.716;23.560;2022-07-29T07:45:32;101978.00;;;20.52;63.71
70521;BME280;58442;52.716;23.560;2022-07-29T07:47:33;101979.61;;;20.56;63.65
70521;BME280;58442;52.716;23.560;2022-07-29T07:49:44;101974.91;;;20.60;63.59
70521;BME280;58442;52.716;23.560;2022-07-29T07:51:45;101976.49;;;20.61;63.41
70521;BME280;58442;52.716;23.560;2022-07-29T07:53:46;101978.87;;;20.63;63.33
70521;BME280;58442;52.716;23.560;2022-07-29T07:55:50;101983.64;;;20.69;63.16
70521;BME280;58442;52.716;23.560;2022-07-29T07:57:58;101984.11;;;20.86;62.74
70521;BME280;58442;52.716;23.560;2022-07-29T08:00:00;101986.54;;;20.98;62.10
70521;BME280;58442;52.716;23.560;2022-07-29T08:02:01;101989.34;;;21.05;61.82
70521;BME280;58442;52.716;23.560;2022-07-29T08:04:02;101987.81;;;21.18;61.50
70521;BME280;58442;52.716;23.560;2022-07-29T08:06:13;101979.20;;;21.30;61.12
70521;BME280;58442;52.716;23.560;2022-07-29T08:08:14;101987.93;;;21.43;60.92
70521;BME280;58442;52.716;23.560;2022-07-29T08:10:17;101984.38;;;21.53;60.44
70521;BME280;58442;52.716;23.560;2022-07-29T08:12:29;101984.01;;;21.66;60.04
70521;BME280;58442;52.716;23.560;2022-07-29T08:14:31;101987.20;;;21.78;59.78
70521;BME280;58442;52.716;23.560;2022-07-29T08:16:32;101981.66;;;21.89;59.33
70521;BME280;58442;52.716;23.560;2022-07-29T08:18:33;101972.18;;;22.01;58.89
70521;BME280;58442;52.716;23.560;2022-07-29T08:20:35;101981.69;;;22.14;58.62
70521;BME280;58442;52.716;23.560;2022-07-29T08:22:42;101984.85;;;22.23;58.36
70521;BME280;58442;52.716;23.560;2022-07-29T08:24:43;101981.29;;;22.33;58.01
70521;BME280;58442;52.716;23.560;2022-07-29T08:26:51;101984.03;;;22.48;57.67
70521;BME280;58442;52.716;23.560;2022-07-29T08:28:52;101976.88;;;22.61;57.29
70521;BME280;58442;52.716;23.560;2022-07-29T08:30:57;101979.23;;;22.73;56.79
70521;BME280;58442;52.716;23.560;2022-07-29T08:32:58;101985.51;;;22.84;56.47
70521;BME280;58442;52.716;23.560;2022-07-29T08:34:59;101984.70;;;22.98;56.14
70521;BME280;58442;52.716;23.560;2022-07-29T08:37:01;101979.12;;;23.09;55.74
70521;BME280;58442;52.716;23.560;2022-07-29T08:39:12;101979.46;;;23.18;55.46
70521;BME280;58442;52.716;23.560;2022-07-29T08:41:13;101988.53;;;23.29;55.22
70521;BME280;58442;52.716;23.560;2022-07-29T08:43:14;101986.88;;;23.39;54.93
70521;BME280;58442;52.716;23.560;2022-07-29T08:45:16;101980.87;;;23.51;54.74
70521;BME280;58442;52.716;23.560;2022-07-29T08:47:27;101987.95;;;23.59;54.60
70521;BME280;58442;52.716;23.560;2022-07-29T08:49:28;101989.55;;;23.64;54.56
70521;BME280;58442;52.716;23.560;2022-07-29T08:51:30;101989.90;;;23.69;54.39
70521;BME280;58442;52.716;23.560;2022-07-29T08:53:36;101989.48;;;23.71;54.23
70521;BME280;58442;52.716;23.560;2022-07-29T08:55:49;101978.70;;;23.80;54.02
70521;BME280;58442;52.716;23.560;2022-07-29T08:57:51;101989.37;;;23.89;53.69
70521;BME280;58442;52.716;23.560;2022-07-29T08:59:53;101989.33;;;23.92;53.63
70521;BME280;58442;52.716;23.560;2022-07-29T09:01:56;101981.77;;;23.96;53.66
70521;BME280;58442;52.716;23.560;2022-07-29T09:04:03;101994.46;;;23.97;53.66
70521;BME280;58442;52.716;23.560;2022-07-29T09:06:05;101989.69;;;23.94;53.59
70521;BME280;58442;52.716;23.560;2022-07-29T09:08:06;101996.04;;;23.95;53.42
70521;BME280;58442;52.716;23.560;2022-07-29T09:10:08;101991.63;;;24.01;53.26
70521;BME280;58442;52.716;23.560;2022-07-29T09:12:11;101988.36;;;24.13;53.02
70521;BME280;58442;52.716;23.560;2022-07-29T09:14:14;101988.65;;;24.26;52.75
70521;BME280;58442;52.716;23.560;2022-07-29T09:16:15;101992.09;;;24.41;52.42
70521;BME280;58442;52.716;23.560;2022-07-29T09:20:29;101990.64;;;24.67;51.72
70521;BME280;58442;52.716;23.560;2022-07-29T09:22:47;101980.28;;;24.71;51.70
70521;BME280;58442;52.716;23.560;2022-07-29T09:24:51;101982.20;;;24.77;51.39
70521;BME280;58442;52.716;23.560;2022-07-29T09:26:52;101987.25;;;24.86;51.22
70521;BME280;58442;52.716;23.560;2022-07-29T09:28:53;101987.52;;;24.95;50.90
70521;BME280;58442;52.716;23.560;2022-07-29T09:31:01;101992.57;;;25.07;50.50
70521;BME280;58442;52.716;23.560;2022-07-29T09:33:03;101993.27;;;25.15;50.07
70521;BME280;58442;52.716;23.560;2022-07-29T09:35:17;101987.15;;;25.27;49.81
70521;BME280;58442;52.716;23.560;2022-07-29T09:37:28;101993.33;;;25.38;49.40
70521;BME280;58442;52.716;23.560;2022-07-29T09:39:36;101985.63;;;25.50;49.12
70521;BME280;58442;52.716;23.560;2022-07-29T09:41:50;101987.09;;;25.58;48.86
70521;BME280;58442;52.716;23.560;2022-07-29T09:43:59;101989.72;;;25.69;48.59
70521;BME280;58442;52.716;23.560;2022-07-29T09:46:12;101983.72;;;25.74;48.28
70521;BME280;58442;52.716;23.560;2022-07-29T09:48:19;101985.30;;;25.71;48.27
70521;BME280;58442;52.716;23.560;2022-07-29T09:50:20;101983.72;;;25.74;48.17
70521;BME280;58442;52.716;23.560;2022-07-29T09:52:29;101982.12;;;25.73;48.25
70521;BME280;58442;52.716;23.560;2022-07-29T09:54:39;101978.87;;;25.78;47.95
70521;BME280;58442;52.716;23.560;2022-07-29T09:56:41;101977.52;;;25.86;47.74
70521;BME280;58442;52.716;23.560;2022-07-29T09:58:42;101978.28;;;25.90;47.69
70521;BME280;58442;52.716;23.560;2022-07-29T10:00:44;101977.06;;;25.91;47.80
70521;BME280;58442;52.716;23.560;2022-07-29T10:02:58;101973.01;;;25.96;47.66
70521;BME280;58442;52.716;23.560;2022-07-29T10:05:06;101974.03;;;26.05;47.28
70521;BME280;58442;52.716;23.560;2022-07-29T10:07:07;101966.84;;;26.08;47.26
70521;BME280;58442;52.716;23.560;2022-07-29T10:09:10;101968.34;;;26.12;47.05
70521;BME280;58442;52.716;23.560;2022-07-29T10:11:16;101962.19;;;26.21;46.90
70521;BME280;58442;52.716;23.560;2022-07-29T10:13:17;101958.02;;;26.33;46.62
70521;BME280;58442;52.716;23.560;2022-07-29T10:15:21;101962.20;;;26.44;46.22
70521;BME280;58442;52.716;23.560;2022-07-29T10:17:23;101963.78;;;26.45;46.09
70521;BME280;58442;52.716;23.560;2022-07-29T10:19:28;101956.85;;;26.54;45.93
70521;BME280;58442;52.716;23.560;2022-07-29T10:21:31;101954.00;;;26.34;46.13
70521;BME280;58442;52.716;23.560;2022-07-29T10:23:34;101955.97;;;26.13;46.48
70521;BME280;58442;52.716;23.560;2022-07-29T10:25:36;101954.17;;;26.03;46.58
70521;BME280;58442;52.716;23.560;2022-07-29T10:27:41;101968.67;;;25.68;47.07
70521;BME280;58442;52.716;23.560;2022-07-29T10:29:43;101959.57;;;25.36;47.28
70521;BME280;58442;52.716;23.560;2022-07-29T10:34:06;101961.57;;;25.36;46.98
70521;BME280;58442;52.716;23.560;2022-07-29T10:43:14;101951.36;;;24.95;46.90
70521;BME280;58442;52.716;23.560;2022-07-29T10:45:21;101949.27;;;25.06;46.44
70521;BME280;58442;52.716;23.560;2022-07-29T10:47:24;101955.09;;;25.16;46.57
70521;BME280;58442;52.716;23.560;2022-07-29T10:49:26;101947.76;;;25.29;46.52
70521;BME280;58442;52.716;23.560;2022-07-29T10:53:50;101938.43;;;25.66;45.92
70521;BME280;58442;52.716;23.560;2022-07-29T10:55:56;101945.32;;;25.85;45.71
70521;BME280;58442;52.716;23.560;2022-07-29T11:05:10;101936.30;;;25.50;46.12
70521;BME280;58442;52.716;23.560;2022-07-29T11:09:17;101938.08;;;25.10;46.47
70521;BME280;58442;52.716;23.560;2022-07-29T11:11:31;101942.43;;;25.11;46.31
70521;BME280;58442;52.716;23.560;2022-07-29T11:13:46;101937.84;;;25.28;45.81
70521;BME280;58442;52.716;23.560;2022-07-29T11:15:54;101934.99;;;25.31;45.57
70521;BME280;58442;52.716;23.560;2022-07-29T11:18:03;101924.96;;;25.10;45.91